ADDS METAR Data INFO
IDs: Format: Raw Decoded Include TAF

Data at: 0746 UTC 21 Jul 2018

PASA 210726Z AUTO 10012KT 10SM BKN026 BKN040 OVC060 11/09 A3014 RMK AO2
PASA 210715Z AUTO 10011KT 10SM SCT026 BKN040 OVC060 11/09 A3014 RMK AO2
PASA 210656Z AUTO 10011KT 10SM BKN026 OVC030 11/09 A3014 RMK AO2 SLP207 T01110089
PASA 210606Z AUTO 11012KT 10SM OVC028 12/09 A3014 RMK AO2
PASA 210456Z AUTO 07008KT 10SM FEW025 OVC032 10/09 A3015 RMK AO2 SLP211 T01000089
PASA 210453Z AUTO 07009KT 10SM SCT025 OVC032 10/09 A3015 RMK AO2
PASA 210356Z AUTO 06013KT 10SM SCT020 BKN027 OVC043 11/09 A3015 RMK AO2 SLP213 T01110089
PASA 210256Z AUTO 08012KT 10SM OVC029 11/09 A3016 RMK AO2 SLP215 T01110089 56008
PASA 210216Z AUTO 06013KT 10SM BKN026 OVC031 10/08 A3016 RMK AO2
PASA 210156Z AUTO 06012KT 10SM FEW023 BKN031 OVC043 10/08 A3017 RMK AO2 SLP218 T01000083
PASA 210154Z AUTO 06012KT 10SM FEW023 OVC031 10/08 A3017 RMK AO2
PASA 210056Z AUTO 07011KT 10SM OVC023 09/08 A3018 RMK AO2 SLP223 T00940078
PASA 202356Z AUTO 09012KT 10SM FEW007 OVC021 10/08 A3019 RMK AO2 SLP225 T01000083 10117 20094 55003
PASA 202351Z AUTO 08011KT 10SM FEW007 OVC021 10/08 A3019 RMK AO2
PASA 202156Z AUTO 11011KT 10SM OVC017 11/08 A3020 RMK AO2 SLP229 T01110083
PASA 202056Z AUTO 05004KT 10SM OVC021 10/08 A3020 RMK AO2 SLP228 T01000078 51001
PASA 202030Z AUTO 36005KT 10SM BKN023 OVC033 10/07 A3020 RMK AO2
PASA 202011Z AUTO 02007KT 10SM SCT021 OVC033 11/07 A3019 RMK AO2
PASA 201956Z AUTO 05007KT 10SM BKN021 BKN028 OVC033 10/07 A3020 RMK AO2 SLP227 T01000067
PASA 201904Z AUTO VRB04KT 10SM BKN023 OVC030 11/07 A3020 RMK AO2
PASA 201856Z AUTO 21005KT 10SM SCT023 BKN030 11/07 A3020 RMK AO2 SLP228 T01060072
PASA 201824Z AUTO 22008KT 10SM FEW017 11/07 A3019 RMK AO2
PASA 201709Z AUTO VRB03KT 10SM BKN027 09/07 A3020 RMK AO2
PASA 201656Z AUTO 00000KT 10SM FEW012 SCT023 BKN030 09/07 A3019 RMK AO2 SLP227 T00890067
PASA 201618Z AUTO 00000KT 10SM BKN012 OVC026 08/07 A3019 RMK AO2
PASA 201456Z AUTO 15003KT 10SM BKN024 08/07 A3019 RMK AO2 SLP227 T00780067 55001
PASA 201256Z AUTO 15005KT 10SM BKN022 08/06 A3020 RMK AO2 SLP228 T00780056
PASA 201230Z AUTO 17006KT 10SM SCT022 08/06 A3020 RMK AO2
PASA 201156Z AUTO 17006KT 10SM OVC020 08/06 A3020 RMK AO2 SLP228 6//// 7//// T00780061 10106 20078 58002
PASA 201131Z AUTO 17006KT 10SM OVC016 09/07 A3020 RMK AO2
PASA 201056Z AUTO 00000KT 10SM OVC014 09/07 A3020 RMK AO2 SLP229 T00890072
PASA 201037Z AUTO 12007KT 10SM BKN014 OVC019 08/07 A3020 RMK AO2
PASA 201014Z AUTO 12006KT 10SM BKN019 09/07 A3020 RMK AO2
PASA 200956Z AUTO 17006KT 10SM 09/07 A3020 RMK AO2 SLP230 T00890067
PASA 200919Z AUTO 18011KT 10SM FEW011 SCT016 BKN032 09/07 A3020 RMK AO2
PASA 200856Z AUTO VRB03KT 10SM BKN013 BKN021 09/07 A3021 RMK AO2 SLP230 T00940072 401280067 53004
PASA 200850Z AUTO 16003KT 10SM BKN013 BKN021 09/07 A3021 RMK AO2 401280067
PASA 200828Z AUTO 16007KT 10SM SCT017 09/07 A3020 RMK AO2
PASA 200756Z AUTO VRB03KT 10SM OVC019 10/08 A3020 RMK AO2 SLP229 T01000078
PASA 200726Z AUTO 19003KT 10SM SCT012 BKN021 OVC055 11/08 A3019 RMK AO2
PASA 200656Z AUTO 00000KT 10SM BKN012 BKN017 OVC023 11/08 A3019 RMK AO2 SLP226 T01060083
PASA 200614Z AUTO 08004KT 10SM BKN014 BKN018 OVC023 10/08 A3019 RMK AO2
PASA 200556Z AUTO 06004KT 8SM SCT018 OVC025 09/08 A3019 RMK AO2 SLP227 T00940078 10128 20083 55001
PASA 200421Z AUTO 21007KT 10SM BKN022 13/09 A3019 RMK AO2
PASA 200356Z AUTO 21010KT 10SM SCT020 SCT031 12/08 A3019 RMK AO2 SLP225 T01220083
PASA 200256Z AUTO 19008KT 10SM OVC015 12/08 A3020 RMK AO2 SLP227 T01170083 51001
PASA 200156Z AUTO VRB04KT 10SM OVC013 11/08 A3020 RMK AO2 SLP227 T01060083
PASA 200056Z AUTO 04004KT 10SM OVC013 09/07 A3019 RMK AO2 SLP227 T00940072
PASA 200011Z AUTO 05004KT 10SM OVC013 09/07 A3020 RMK AO2
PASA 192356Z AUTO 04007KT 10SM OVC015 09/07 A3019 RMK AO2 SLP226 T00890072 10100 20078 53006
PASA 192256Z AUTO 05007KT 10SM OVC015 09/07 A3018 RMK AO2 SLP223 T00890067
PASA 192156Z AUTO 06007KT 10SM OVC015 09/06 A3018 RMK AO2 SLP222 T00940061
PASA 192141Z AUTO 04007KT 10SM OVC015 10/07 A3018 RMK AO2
PASA 192123Z AUTO 04006KT 10SM OVC013 09/06 A3018 RMK AO2
PASA 191956Z AUTO 07005KT 10SM OVC017 08/06 A3017 RMK AO2 SLP219 T00830061